Raccoon Key, Florida
Current Conditions -  °F | °C
As of 2:53 PM on Monday 24 Nov 2014 (Local Time) from KNQX Reporting Station
Scattered Clouds Scattered Clouds  
Wind Chill: 82°   Ceiling: Unl
Heat Index: 89°   Visibility: 10mi
Dew Point: 76°   Wind: 9mph
Humidity: 82%   Direction: 130°SE
Pressure: 29.94"   Gusts: NA
Location:  24.5796°N, 81.6849°W
Report Text: KNQX 241953Z 13008KT 10SM FEW070 SCT200 28/24 A2994 RMK AO2 SLP136 T02780244 $
Loading
Personal Weather Stations






























Interactive Weather Map New forecast layout! Learn more

10-Day Weather Forecast

Advertisements
Track Severe Weather on mobile